createdAt,value
2023-01-26T00:02:02.990Z,20.53
2023-01-26T00:04:37.235Z,20.90
2023-01-26T00:07:05.713Z,21.50
2023-01-26T00:12:31.064Z,22.50
2023-01-26T00:15:00.691Z,21.80
2023-01-26T00:17:37.489Z,21.13
2023-01-26T00:20:07.644Z,21.73
2023-01-26T00:22:35.454Z,21.53
2023-01-26T00:25:05.342Z,19.30
2023-01-26T00:27:35.435Z,19.87
2023-01-26T00:30:05.398Z,20.00
2023-01-26T00:32:37.617Z,18.27
2023-01-26T00:35:07.783Z,18.97
2023-01-26T00:37:35.990Z,18.00
2023-01-26T00:40:09.531Z,18.80
2023-01-26T00:42:43.227Z,17.23
2023-01-26T00:45:19.681Z,19.23
2023-01-26T00:47:47.963Z,18.40
2023-01-26T00:50:27.968Z,16.87
2023-01-26T00:52:57.639Z,18.67
2023-01-26T00:55:32.313Z,16.57
2023-01-26T00:58:01.649Z,18.60
2023-01-26T01:00:31.376Z,16.60
2023-01-26T01:03:05.523Z,15.70
2023-01-26T01:05:39.490Z,16.97
2023-01-26T01:08:07.799Z,16.23
2023-01-26T01:10:40.956Z,16.27
2023-01-26T01:13:09.094Z,15.37
2023-01-26T01:15:43.005Z,15.53
2023-01-26T01:18:11.555Z,16.20
2023-01-26T01:20:43.665Z,14.27
2023-01-26T01:23:14.069Z,15.27
2023-01-26T01:25:43.665Z,15.63
2023-01-26T01:28:11.459Z,14.77
2023-01-26T01:30:47.081Z,13.80
2023-01-26T01:33:19.038Z,14.37
2023-01-26T01:36:00.027Z,14.17
2023-01-26T01:38:38.833Z,13.37
2023-01-26T01:41:08.149Z,13.20
2023-01-26T01:43:39.586Z,13.90
2023-01-26T01:46:17.003Z,13.77
2023-01-26T01:48:54.134Z,13.23
2023-01-26T01:51:32.245Z,11.77
2023-01-26T01:54:06.881Z,12.50
2023-01-26T01:56:38.289Z,11.70
2023-01-26T01:59:09.712Z,11.43
2023-01-26T02:01:38.682Z,12.07
2023-01-26T02:04:11.447Z,11.33
2023-01-26T02:06:51.221Z,10.83
2023-01-26T02:09:39.627Z,11.40
2023-01-26T02:12:18.785Z,9.93
2023-01-26T02:14:50.786Z,8.87
2023-01-26T02:17:24.172Z,10.97
2023-01-26T02:20:00.334Z,8.83
2023-01-26T02:22:45.384Z,9.00
2023-01-26T02:25:27.456Z,9.37
2023-01-26T02:28:26.688Z,7.67
2023-01-26T02:31:01.607Z,9.10
2023-01-26T02:33:34.979Z,9.47
2023-01-26T02:36:08.275Z,8.30
2023-01-26T02:38:50.181Z,8.30
2023-01-26T02:41:42.297Z,8.70
2023-01-26T02:44:15.846Z,8.53
2023-01-26T02:46:49.227Z,8.30
2023-01-26T02:49:39.030Z,8.37
2023-01-26T02:52:11.910Z,9.50
2023-01-26T02:55:01.413Z,7.90
2023-01-26T02:57:32.563Z,7.60
2023-01-26T03:00:02.377Z,7.97
2023-01-26T03:02:42.328Z,8.20
2023-01-26T03:05:11.412Z,7.30
2023-01-26T03:07:43.201Z,8.50
2023-01-26T03:10:12.284Z,8.37
2023-01-26T03:12:41.035Z,8.47
2023-01-26T03:15:31.753Z,8.93
2023-01-26T03:18:23.046Z,8.00
2023-01-26T03:21:09.232Z,7.97
2023-01-26T03:23:58.218Z,9.40
2023-01-26T03:26:47.538Z,7.93
2023-01-26T03:29:20.176Z,7.83
2023-01-26T03:31:55.466Z,8.60
2023-01-26T03:34:25.779Z,8.60
2023-01-26T03:36:54.935Z,8.57
2023-01-26T03:39:40.551Z,7.90
2023-01-26T03:42:27.300Z,7.70
2023-01-26T03:45:14.340Z,7.43
2023-01-26T03:48:03.833Z,6.53
2023-01-26T03:50:51.896Z,7.03
2023-01-26T03:53:46.824Z,6.73
2023-01-26T03:56:21.529Z,6.63
2023-01-26T03:58:57.667Z,6.20
2023-01-26T04:01:29.905Z,6.40
2023-01-26T04:04:21.215Z,6.10
2023-01-26T04:07:09.337Z,6.13
2023-01-26T04:09:41.168Z,5.40
2023-01-26T04:12:11.154Z,6.10
2023-01-26T04:14:58.313Z,5.70
2023-01-26T04:17:43.857Z,6.03
2023-01-26T04:20:40.974Z,5.70
2023-01-26T04:23:21.409Z,6.10
2023-01-26T04:25:54.177Z,6.27
2023-01-26T04:28:32.911Z,6.00
2023-01-26T04:31:03.116Z,6.60
2023-01-26T04:36:15.154Z,6.57
2023-01-26T04:38:45.580Z,6.40
2023-01-26T04:41:14.897Z,6.67
2023-01-26T04:43:46.026Z,6.67
2023-01-26T04:46:16.150Z,5.80
2023-01-26T04:48:44.467Z,5.93
2023-01-26T04:51:23.006Z,6.10
2023-01-26T04:53:53.937Z,6.20
2023-01-26T04:56:26.704Z,6.67
2023-01-26T04:58:57.167Z,5.47
2023-01-26T05:01:25.403Z,5.50
2023-01-26T05:03:54.862Z,5.87
2023-01-26T05:06:24.903Z,6.80
2023-01-26T05:08:57.769Z,6.30
2023-01-26T05:11:26.461Z,6.57
2023-01-26T05:13:58.172Z,6.30
2023-01-26T05:16:30.982Z,6.00
2023-01-26T05:19:00.597Z,6.23
2023-01-26T05:21:30.501Z,5.80
2023-01-26T05:23:59.500Z,5.70
2023-01-26T05:26:34.025Z,5.97
2023-01-26T05:29:03.580Z,5.80
2023-01-26T05:31:33.756Z,6.10
2023-01-26T05:34:01.924Z,5.80
2023-01-26T05:36:32.340Z,6.20
2023-01-26T05:39:09.488Z,6.40
2023-01-26T05:41:39.427Z,5.93
2023-01-26T05:44:08.505Z,5.50
2023-01-26T05:46:37.656Z,5.40
2023-01-26T05:49:05.489Z,6.27
2023-01-26T05:51:38.585Z,5.47
2023-01-26T05:54:11.286Z,5.07
2023-01-26T05:56:43.325Z,4.93
2023-01-26T05:59:12.223Z,5.40
2023-01-26T06:01:45.040Z,5.73
2023-01-26T06:04:13.377Z,5.30
2023-01-26T06:06:47.102Z,5.00
2023-01-26T06:09:16.833Z,4.90
2023-01-26T06:11:44.844Z,5.47
2023-01-26T06:14:19.140Z,6.70
2023-01-26T06:16:48.308Z,7.73
2023-01-26T06:19:17.891Z,7.70
2023-01-26T06:21:49.316Z,9.23
2023-01-26T06:24:21.814Z,8.87
2023-01-26T06:26:51.458Z,9.13
2023-01-26T06:29:29.380Z,8.87
2023-01-26T06:31:57.783Z,8.60
2023-01-26T06:34:27.689Z,9.03
2023-01-26T06:37:03.821Z,8.67
2023-01-26T06:39:31.763Z,8.90
2023-01-26T06:42:21.618Z,8.83
2023-01-26T06:44:52.203Z,8.13
2023-01-26T06:47:24.795Z,7.20
2023-01-26T06:49:54.157Z,7.43
2023-01-26T06:52:32.176Z,6.50
2023-01-26T06:55:01.415Z,7.57
2023-01-26T06:57:31.981Z,8.20
2023-01-26T07:00:00.362Z,7.87
2023-01-26T07:02:32.967Z,7.60
2023-01-26T07:05:01.347Z,6.87
2023-01-26T07:07:40.533Z,8.03
2023-01-26T07:10:13.207Z,7.00
2023-01-26T07:12:44.390Z,7.07
2023-01-26T07:15:15.190Z,6.63
2023-01-26T07:17:44.323Z,6.90
2023-01-26T07:20:16.019Z,7.00
2023-01-26T07:22:48.020Z,5.60
2023-01-26T07:25:17.857Z,6.17
2023-01-26T07:27:49.073Z,6.63
2023-01-26T07:30:23.528Z,6.80
2023-01-26T07:32:53.214Z,5.83
2023-01-26T07:35:21.534Z,5.63
2023-01-26T07:38:19.873Z,5.80
2023-01-26T07:40:50.315Z,4.87
2023-01-26T07:43:18.881Z,5.83
2023-01-26T07:45:50.327Z,5.20
2023-01-26T07:48:19.206Z,6.00
2023-01-26T07:50:49.707Z,6.13
2023-01-26T07:53:23.066Z,5.53
2023-01-26T07:55:56.560Z,5.13
2023-01-26T07:58:27.329Z,5.17
2023-01-26T08:01:01.372Z,5.30
2023-01-26T08:03:37.223Z,5.00
2023-01-26T08:06:08.311Z,4.80
2023-01-26T08:08:41.237Z,5.10
2023-01-26T08:11:12.944Z,5.67
2023-01-26T08:13:41.471Z,6.20
2023-01-26T08:16:12.405Z,6.00
2023-01-26T08:18:46.178Z,6.80
2023-01-26T08:21:28.599Z,6.27
2023-01-26T08:24:04.953Z,6.70
2023-01-26T08:26:33.931Z,7.50
2023-01-26T08:29:06.926Z,6.30
2023-01-26T08:31:39.201Z,7.60
2023-01-26T08:34:07.792Z,7.97
2023-01-26T08:36:36.523Z,5.57
2023-01-26T08:39:14.340Z,7.53
2023-01-26T08:41:51.291Z,6.97
2023-01-26T08:44:19.740Z,7.23
2023-01-26T08:46:49.211Z,7.73
2023-01-26T08:49:18.132Z,7.63
2023-01-26T08:51:47.798Z,7.50
2023-01-26T08:54:18.894Z,6.97
2023-01-26T08:56:49.158Z,6.80
2023-01-26T08:59:18.430Z,7.93
2023-01-26T09:01:51.358Z,7.27
2023-01-26T09:04:22.373Z,7.67
2023-01-26T09:06:58.003Z,8.57
2023-01-26T09:09:27.968Z,7.53
2023-01-26T09:11:57.435Z,8.07
2023-01-26T09:14:26.011Z,8.57
2023-01-26T09:16:55.037Z,8.37
2023-01-26T09:19:35.800Z,8.47
2023-01-26T09:22:07.479Z,8.37
2023-01-26T09:24:38.138Z,7.60
2023-01-26T09:27:10.353Z,8.27
2023-01-26T09:29:45.106Z,9.00
2023-01-26T09:32:14.025Z,7.53
2023-01-26T09:34:46.071Z,7.57
2023-01-26T09:37:15.650Z,8.00
2023-01-26T09:39:46.190Z,7.63
2023-01-26T09:42:35.636Z,7.07
2023-01-26T09:45:20.210Z,8.00
2023-01-26T09:48:03.460Z,7.53
2023-01-26T09:50:36.225Z,6.50
2023-01-26T09:53:15.215Z,7.87
2023-01-26T09:55:54.464Z,8.30
2023-01-26T09:58:36.502Z,8.57
2023-01-26T10:01:06.555Z,7.93
2023-01-26T10:03:41.741Z,8.20
2023-01-26T10:06:22.597Z,7.43
2023-01-26T10:08:53.987Z,7.90
2023-01-26T10:11:47.235Z,7.93
2023-01-26T10:14:20.483Z,8.50
2023-01-26T10:16:53.025Z,7.90
2023-01-26T10:19:35.578Z,9.27
2023-01-26T10:22:12.861Z,7.63
2023-01-26T10:24:44.050Z,7.57
2023-01-26T10:27:28.138Z,8.00
2023-01-26T10:29:59.591Z,8.73
2023-01-26T10:32:30.875Z,7.73
2023-01-26T10:35:05.161Z,8.77
2023-01-26T10:37:39.992Z,8.30
2023-01-26T10:40:12.795Z,11.90
2023-01-26T10:42:57.402Z,7.33
2023-01-26T10:45:34.069Z,7.17
2023-01-26T10:48:06.804Z,8.17
2023-01-26T10:50:37.027Z,8.37
2023-01-26T10:53:08.678Z,9.47
2023-01-26T10:55:42.650Z,7.83
2023-01-26T10:58:55.540Z,8.47
2023-01-26T11:01:30.395Z,6.90
2023-01-26T11:04:05.945Z,6.73
2023-01-26T11:06:36.803Z,6.97
2023-01-26T11:09:18.340Z,6.83
2023-01-26T11:12:04.545Z,7.50
2023-01-26T11:14:35.681Z,8.33
2023-01-26T11:17:17.669Z,9.27
2023-01-26T11:20:11.657Z,8.40
2023-01-26T11:22:52.448Z,8.20
2023-01-26T11:25:28.951Z,6.90
2023-01-26T11:28:15.902Z,8.23
2023-01-26T11:30:59.780Z,6.90
2023-01-26T11:33:43.849Z,8.07
2023-01-26T11:36:30.158Z,6.90
2023-01-26T11:39:13.748Z,7.27
2023-01-26T11:41:54.481Z,7.60
2023-01-26T11:44:44.204Z,7.60
2023-01-26T11:47:29.289Z,7.60
2023-01-26T11:50:23.575Z,7.80
2023-01-26T11:53:02.532Z,7.87
2023-01-26T11:55:55.148Z,7.13
2023-01-26T11:58:39.048Z,8.50
2023-01-26T12:01:13.093Z,9.43
2023-01-26T12:03:47.504Z,8.17
2023-01-26T12:06:29.577Z,8.37
2023-01-26T12:09:02.960Z,8.47
2023-01-26T12:11:39.448Z,9.20
2023-01-26T12:14:17.662Z,7.87
2023-01-26T12:17:15.656Z,9.03
2023-01-26T12:19:56.096Z,9.60
2023-01-26T12:22:34.224Z,8.27
2023-01-26T12:25:19.689Z,8.83
2023-01-26T12:28:01.550Z,9.27
2023-01-26T12:30:42.053Z,8.80
2023-01-26T12:33:15.650Z,8.80
2023-01-26T12:36:09.701Z,10.70
2023-01-26T12:39:12.571Z,8.60
2023-01-26T12:42:02.746Z,9.63
2023-01-26T12:44:38.507Z,9.20
2023-01-26T12:47:15.546Z,9.17
2023-01-26T12:49:53.387Z,9.40
2023-01-26T12:52:28.377Z,9.83
2023-01-26T12:55:04.382Z,8.93
2023-01-26T12:57:41.227Z,9.03
2023-01-26T13:00:30.067Z,8.67
2023-01-26T13:03:03.723Z,7.63
2023-01-26T13:05:39.519Z,8.67
2023-01-26T13:09:01.250Z,8.87
2023-01-26T13:11:50.867Z,8.07
2023-01-26T13:14:42.080Z,8.93
2023-01-26T13:17:53.025Z,11.87
2023-01-26T13:20:47.105Z,10.50
2023-01-26T13:23:53.743Z,9.23
2023-01-26T13:26:44.218Z,9.37
2023-01-26T13:29:35.634Z,9.40
2023-01-26T13:32:58.252Z,9.53
2023-01-26T13:35:35.731Z,9.30
2023-01-26T13:38:16.199Z,9.60
2023-01-26T13:40:55.156Z,8.30
2023-01-26T13:43:33.883Z,8.63
2023-01-26T13:46:14.206Z,8.27
2023-01-26T13:48:46.744Z,8.90
2023-01-26T13:51:19.997Z,7.90
2023-01-26T13:54:06.316Z,8.03
2023-01-26T13:56:37.540Z,9.93
2023-01-26T13:59:12.926Z,9.37
2023-01-26T14:01:49.831Z,8.43
2023-01-26T14:04:24.801Z,7.43
2023-01-26T14:06:57.745Z,8.40
2023-01-26T14:09:30.467Z,9.53
2023-01-26T14:12:03.987Z,9.37
2023-01-26T14:14:37.047Z,9.50
2023-01-26T14:17:29.413Z,9.00
2023-01-26T14:20:00.338Z,8.87
2023-01-26T14:22:52.510Z,8.77
2023-01-26T14:25:22.586Z,9.53
2023-01-26T14:27:54.212Z,8.73
2023-01-26T14:30:29.943Z,7.77
2023-01-26T14:33:09.561Z,9.30
2023-01-26T14:35:38.129Z,8.80
2023-01-26T14:38:16.703Z,10.07
2023-01-26T14:40:53.110Z,9.53
2023-01-26T14:43:23.435Z,9.90
2023-01-26T14:45:59.506Z,9.07
2023-01-26T14:48:36.300Z,10.17
2023-01-26T14:51:10.143Z,9.40
2023-01-26T14:53:40.791Z,10.47
2023-01-26T15:04:25.999Z,8.67
2023-01-26T15:06:54.433Z,9.77
2023-01-26T15:09:28.925Z,10.60
2023-01-26T15:12:19.312Z,9.53
2023-01-26T15:14:51.251Z,9.90
2023-01-26T15:17:39.397Z,12.37
2023-01-26T15:20:42.221Z,12.07
2023-01-26T15:23:27.773Z,11.13
2023-01-26T15:25:59.513Z,11.63
2023-01-26T15:28:36.478Z,12.03
2023-01-26T15:31:05.940Z,11.57
2023-01-26T15:33:45.340Z,11.53
2023-01-26T15:36:37.489Z,11.80
2023-01-26T15:39:13.942Z,10.80
2023-01-26T15:41:43.056Z,10.23
2023-01-26T15:44:19.829Z,10.97
2023-01-26T15:46:47.731Z,11.10
2023-01-26T15:49:23.674Z,11.17
2023-01-26T15:51:55.697Z,10.73
2023-01-26T15:54:26.466Z,10.57
2023-01-26T15:56:57.421Z,10.13
2023-01-26T15:59:26.380Z,10.37
2023-01-26T16:01:57.584Z,10.70
2023-01-26T16:04:28.938Z,10.40
2023-01-26T16:06:59.126Z,11.40
2023-01-26T16:09:33.859Z,11.73
2023-01-26T16:12:02.703Z,10.00
2023-01-26T16:14:32.869Z,11.03
2023-01-26T16:17:01.531Z,10.67
2023-01-26T16:19:35.555Z,10.83
2023-01-26T16:22:04.003Z,11.90
2023-01-26T16:24:34.260Z,12.40
2023-01-26T16:27:05.243Z,11.87
2023-01-26T16:29:36.852Z,11.77
2023-01-26T16:32:31.412Z,11.57
2023-01-26T16:35:00.222Z,11.80
2023-01-26T16:37:29.478Z,12.50
2023-01-26T16:40:00.891Z,13.13
2023-01-26T16:42:32.436Z,12.20
2023-01-26T16:45:01.493Z,11.73
2023-01-26T16:47:37.315Z,12.80
2023-01-26T16:50:06.211Z,13.47
2023-01-26T16:52:39.507Z,13.30
2023-01-26T16:55:17.666Z,13.43
2023-01-26T16:57:50.338Z,12.93
2023-01-26T17:00:21.933Z,13.07
2023-01-26T17:02:54.510Z,14.00
2023-01-26T17:05:26.677Z,13.20
2023-01-26T17:08:00.617Z,13.93
2023-01-26T17:10:35.812Z,13.13
2023-01-26T17:13:07.101Z,13.27
2023-01-26T17:15:35.328Z,13.53
2023-01-26T17:18:06.652Z,12.83
2023-01-26T17:20:35.352Z,13.60
2023-01-26T17:23:05.775Z,13.33
2023-01-26T17:25:36.132Z,12.77
2023-01-26T17:28:11.416Z,13.63
2023-01-26T17:30:41.163Z,12.90
2023-01-26T17:33:11.654Z,13.17
2023-01-26T17:35:40.839Z,13.57
2023-01-26T17:38:09.544Z,13.17
2023-01-26T17:40:41.353Z,13.13
2023-01-26T17:43:13.638Z,12.90
2023-01-26T17:45:45.025Z,13.67
2023-01-26T17:48:16.260Z,13.00
2023-01-26T17:50:51.885Z,14.43
2023-01-26T17:53:23.149Z,12.60
2023-01-26T17:55:55.366Z,12.60
2023-01-26T17:58:25.024Z,13.90
2023-01-26T18:00:53.281Z,13.63
2023-01-26T18:03:27.240Z,13.43
2023-01-26T18:05:58.260Z,13.57
2023-01-26T18:08:27.349Z,15.47
2023-01-26T18:11:03.970Z,15.07
2023-01-26T18:13:39.755Z,14.43
2023-01-26T18:16:09.108Z,14.77
2023-01-26T18:18:38.241Z,14.37
2023-01-26T18:21:17.871Z,14.43
2023-01-26T18:23:48.498Z,15.40
2023-01-26T18:26:22.274Z,15.60
2023-01-26T18:28:57.943Z,14.87
2023-01-26T18:31:30.872Z,15.73
2023-01-26T18:34:02.444Z,14.37
2023-01-26T18:36:31.263Z,14.87
2023-01-26T18:39:02.158Z,14.60
2023-01-26T18:41:33.035Z,14.27
2023-01-26T18:44:03.990Z,15.90
2023-01-26T18:46:33.695Z,14.73
2023-01-26T18:49:04.860Z,15.10
2023-01-26T18:51:37.891Z,15.30
2023-01-26T18:54:12.226Z,16.27
2023-01-26T18:56:49.358Z,16.20
2023-01-26T18:59:18.248Z,16.97
2023-01-26T19:01:49.084Z,17.23
2023-01-26T19:04:21.051Z,17.03
2023-01-26T19:06:50.358Z,16.43
2023-01-26T19:09:20.972Z,15.90
2023-01-26T19:11:53.308Z,14.93
2023-01-26T19:14:22.591Z,15.50
2023-01-26T19:16:57.512Z,15.33
2023-01-26T19:19:27.144Z,15.40
2023-01-26T19:21:56.312Z,16.07
2023-01-26T19:24:27.482Z,15.03
2023-01-26T19:26:57.807Z,14.87
2023-01-26T19:29:34.539Z,16.00
2023-01-26T19:32:03.625Z,17.10
2023-01-26T19:34:37.817Z,16.83
2023-01-26T19:37:06.901Z,16.80
2023-01-26T19:39:39.411Z,16.60
2023-01-26T19:42:10.046Z,16.37
2023-01-26T19:44:39.292Z,16.33
2023-01-26T19:47:09.271Z,16.17
2023-01-26T19:49:38.042Z,16.17
2023-01-26T19:52:11.686Z,16.83
2023-01-26T19:54:43.573Z,16.80
2023-01-26T19:57:14.559Z,16.13
2023-01-26T19:59:55.889Z,17.27
2023-01-26T20:02:28.914Z,16.43
2023-01-26T20:04:58.407Z,15.87
2023-01-26T20:07:26.622Z,15.90
2023-01-26T20:09:58.734Z,16.47
2023-01-26T20:12:28.528Z,15.70
2023-01-26T20:15:01.609Z,16.60
2023-01-26T20:17:30.329Z,16.73
2023-01-26T20:19:59.911Z,16.50
2023-01-26T20:22:33.643Z,15.97
2023-01-26T20:25:02.786Z,14.73
2023-01-26T20:27:36.337Z,14.63
2023-01-26T20:30:06.710Z,15.27
2023-01-26T20:32:43.024Z,14.17
2023-01-26T20:35:16.376Z,15.57
2023-01-26T20:37:45.156Z,15.07
2023-01-26T20:40:14.919Z,14.53
2023-01-26T20:42:45.949Z,15.13
2023-01-26T20:45:15.338Z,15.33
2023-01-26T20:47:45.528Z,15.80
2023-01-26T20:50:22.173Z,15.13
2023-01-26T20:52:55.303Z,15.47
2023-01-26T20:55:24.330Z,15.37
2023-01-26T20:57:53.684Z,15.10
2023-01-26T21:00:24.223Z,16.13
2023-01-26T21:02:54.341Z,14.93
2023-01-26T21:05:25.129Z,15.57
2023-01-26T21:07:54.142Z,14.83
2023-01-26T21:10:24.973Z,13.90
2023-01-26T21:12:54.394Z,15.00
2023-01-26T21:15:22.300Z,13.90
2023-01-26T21:17:53.356Z,15.20
2023-01-26T21:20:22.251Z,13.57
2023-01-26T21:22:50.560Z,14.43
2023-01-26T21:25:18.691Z,13.07
2023-01-26T21:27:55.313Z,13.00
2023-01-26T21:30:30.181Z,13.97
2023-01-26T21:33:23.542Z,13.93
2023-01-26T21:35:58.268Z,13.67
2023-01-26T21:38:34.921Z,13.20
2023-01-26T21:41:05.709Z,13.77
2023-01-26T21:43:37.495Z,13.60
2023-01-26T21:46:08.466Z,13.83
2023-01-26T21:48:39.249Z,14.17
2023-01-26T21:51:30.413Z,12.93
2023-01-26T21:54:04.621Z,13.50
2023-01-26T21:56:34.743Z,13.53
2023-01-26T21:59:08.388Z,12.53
2023-01-26T22:01:55.173Z,13.50
2023-01-26T22:04:26.467Z,13.30
2023-01-26T22:06:56.101Z,14.40
2023-01-26T22:09:27.061Z,14.57
2023-01-26T22:11:55.986Z,14.20
2023-01-26T22:14:29.125Z,14.90
2023-01-26T22:17:00.517Z,13.67
2023-01-26T22:19:30.713Z,14.60
2023-01-26T22:21:59.076Z,15.03
2023-01-26T22:24:28.283Z,14.53
2023-01-26T22:26:59.697Z,14.37
2023-01-26T22:29:29.512Z,13.93
2023-01-26T22:32:05.545Z,14.90
2023-01-26T22:34:37.861Z,14.07
2023-01-26T22:37:06.662Z,14.50
2023-01-26T22:39:39.861Z,13.10
2023-01-26T22:42:10.964Z,13.43
2023-01-26T22:44:39.787Z,13.37
2023-01-26T22:47:10.862Z,13.07
2023-01-26T22:49:39.141Z,13.07
2023-01-26T22:52:21.665Z,12.73
2023-01-26T22:54:52.936Z,17.10
2023-01-26T22:57:22.605Z,12.43
2023-01-26T22:59:52.716Z,13.87
2023-01-26T23:02:22.552Z,13.93
2023-01-26T23:04:50.822Z,14.47
2023-01-26T23:07:20.426Z,14.77
2023-01-26T23:09:50.978Z,13.77
2023-01-26T23:12:19.948Z,12.80
2023-01-26T23:14:48.615Z,14.37
2023-01-26T23:17:18.109Z,15.40
2023-01-26T23:19:49.702Z,13.80
2023-01-26T23:22:21.662Z,14.63
2023-01-26T23:25:21.472Z,14.63
2023-01-26T23:27:50.698Z,12.73
2023-01-26T23:30:18.983Z,14.10
2023-01-26T23:32:49.478Z,13.37
2023-01-26T23:35:20.840Z,12.67
2023-01-26T23:37:51.539Z,13.73
2023-01-26T23:40:20.700Z,13.83
2023-01-26T23:43:14.299Z,13.53
2023-01-26T23:45:45.535Z,13.53
2023-01-26T23:48:17.575Z,13.37
2023-01-26T23:50:55.349Z,13.20
2023-01-26T23:53:25.536Z,13.23
2023-01-26T23:55:55.354Z,14.63
2023-01-26T23:58:28.170Z,14.50
